Jamestown Regional Airport Jamestown US
ICAO: KJMS
IATA: JMS
Category: Medium
Scheduled Services: Yes

Elevation: 1500 ft
TransAlt. 18000 ft.

Airport Communications:
ASOS:118.425
MINNEAPOLIS CNTR:124.2
GRAND FORKS RDO:122.2
CTAF/UNICOM:123

KJMS Zoom In..

If you have problems with the map follow the link
https://www.worldairports.se/pages/airport.php?
ICAO=KJMS

Runways:

(A) RW 04 length 5750 ft width 75 ft
---- / hdg 37

(B) RW 13 length 6502 ft width 100 ft
---- / hdg 127

(C) RW 22 length 5750 ft width 75 ft
---- / hdg 217

(D) RW 31 length 6502 ft width 100 ft
ILS 109.30 / hdg 307

Location; KJMS
Day. 18 / Time. 05.56 Zulu
* Altimeter: 30.21
* Temperature: 04° c. 39.2°f.
* Wind from: 190° Speed 10 kn.
Dewpoint: 01° c.
Visibility: 10 Statute Miles.
Clouds: Clear (automated report).

KJMS 180556Z AUTO 19010KT 10SM CLR 04/01 A3021 RMK AO2 SLP240 T00390006 10078 20033 401331039 58015


Wind From 190°
Speed 10 kn.

 
 
jpsmedia.com for Web Design worldairports.se 2018   terms of use